sensor_id;sensor_type;location;lat;lon;timestamp;temperature;humidity
53880;DHT22;39791;53.184;5.486;2024-03-06T00:02:00;12.70;99.90
53880;DHT22;39791;53.184;5.486;2024-03-06T00:04:26;12.40;99.90
53880;DHT22;39791;53.184;5.486;2024-03-06T00:06:52;11.90;99.90
53880;DHT22;39791;53.184;5.486;2024-03-06T00:09:19;12.40;99.90
53880;DHT22;39791;53.184;5.486;2024-03-06T00:11:45;12.50;99.90
53880;DHT22;39791;53.184;5.486;2024-03-06T00:14:10;12.30;99.90
53880;DHT22;39791;53.184;5.486;2024-03-06T00:16:38;12.10;99.90
53880;DHT22;39791;53.184;5.486;2024-03-06T00:19:04;12.30;99.90
53880;DHT22;39791;53.184;5.486;2024-03-06T00:21:29;12.30;99.90
53880;DHT22;39791;53.184;5.486;2024-03-06T00:23:55;12.40;99.90
53880;DHT22;39791;53.184;5.486;2024-03-06T00:26:21;12.70;99.90
53880;DHT22;39791;53.184;5.486;2024-03-06T00:28:47;12.30;99.90
53880;DHT22;39791;53.184;5.486;2024-03-06T00:31:13;13.20;99.90
53880;DHT22;39791;53.184;5.486;2024-03-06T00:33:39;12.50;99.90
53880;DHT22;39791;53.184;5.486;2024-03-06T00:36:06;12.70;99.90
53880;DHT22;39791;53.184;5.486;2024-03-06T00:38:31;12.50;99.90
53880;DHT22;39791;53.184;5.486;2024-03-06T00:40:57;12.50;99.90
53880;DHT22;39791;53.184;5.486;2024-03-06T00:43:23;12.30;99.90
53880;DHT22;39791;53.184;5.486;2024-03-06T00:45:49;12.70;99.90
53880;DHT22;39791;53.184;5.486;2024-03-06T00:48:14;12.70;99.90
53880;DHT22;39791;53.184;5.486;2024-03-06T00:50:40;12.80;99.90
53880;DHT22;39791;53.184;5.486;2024-03-06T00:53:06;12.50;99.90
53880;DHT22;39791;53.184;5.486;2024-03-06T00:55:32;12.60;99.90
53880;DHT22;39791;53.184;5.486;2024-03-06T00:57:57;12.50;99.90
53880;DHT22;39791;53.184;5.486;2024-03-06T01:00:23;12.30;99.90
53880;DHT22;39791;53.184;5.486;2024-03-06T01:02:48;12.70;99.90
53880;DHT22;39791;53.184;5.486;2024-03-06T01:05:14;12.30;99.90
53880;DHT22;39791;53.184;5.486;2024-03-06T01:07:40;12.30;99.90
53880;DHT22;39791;53.184;5.486;2024-03-06T01:10:06;12.30;99.90
53880;DHT22;39791;53.184;5.486;2024-03-06T01:12:33;12.20;99.90
53880;DHT22;39791;53.184;5.486;2024-03-06T01:14:58;12.10;99.90
53880;DHT22;39791;53.184;5.486;2024-03-06T01:17:24;12.50;99.90
53880;DHT22;39791;53.184;5.486;2024-03-06T01:19:50;11.80;99.90
53880;DHT22;39791;53.184;5.486;2024-03-06T01:22:16;12.10;99.90
53880;DHT22;39791;53.184;5.486;2024-03-06T01:24:41;12.40;99.90
53880;DHT22;39791;53.184;5.486;2024-03-06T01:27:07;12.30;99.90
53880;DHT22;39791;53.184;5.486;2024-03-06T01:29:33;12.40;99.90
53880;DHT22;39791;53.184;5.486;2024-03-06T01:31:59;12.40;99.90
53880;DHT22;39791;53.184;5.486;2024-03-06T01:34:25;12.30;99.90
53880;DHT22;39791;53.184;5.486;2024-03-06T01:36:52;12.30;99.90
53880;DHT22;39791;53.184;5.486;2024-03-06T01:39:18;12.60;99.90
53880;DHT22;39791;53.184;5.486;2024-03-06T01:41:47;12.50;99.90
53880;DHT22;39791;53.184;5.486;2024-03-06T01:44:14;12.40;99.90
53880;DHT22;39791;53.184;5.486;2024-03-06T01:46:40;12.40;99.90
53880;DHT22;39791;53.184;5.486;2024-03-06T01:49:06;12.60;99.90
53880;DHT22;39791;53.184;5.486;2024-03-06T01:51:32;12.60;99.90
53880;DHT22;39791;53.184;5.486;2024-03-06T01:54:00;12.40;99.90
53880;DHT22;39791;53.184;5.486;2024-03-06T01:56:27;13.00;99.90
53880;DHT22;39791;53.184;5.486;2024-03-06T01:58:53;12.50;99.90
53880;DHT22;39791;53.184;5.486;2024-03-06T02:01:21;12.30;99.90
53880;DHT22;39791;53.184;5.486;2024-03-06T02:03:47;12.50;99.90
53880;DHT22;39791;53.184;5.486;2024-03-06T02:06:15;12.40;99.90
53880;DHT22;39791;53.184;5.486;2024-03-06T02:08:45;12.50;99.90
53880;DHT22;39791;53.184;5.486;2024-03-06T02:11:11;12.30;99.90
53880;DHT22;39791;53.184;5.486;2024-03-06T02:13:37;12.30;99.90
53880;DHT22;39791;53.184;5.486;2024-03-06T02:16:03;12.40;99.90
53880;DHT22;39791;53.184;5.486;2024-03-06T02:18:28;12.30;99.90
53880;DHT22;39791;53.184;5.486;2024-03-06T02:20:54;12.40;99.90
53880;DHT22;39791;53.184;5.486;2024-03-06T02:23:19;12.30;99.90
53880;DHT22;39791;53.184;5.486;2024-03-06T02:25:47;12.40;99.90
53880;DHT22;39791;53.184;5.486;2024-03-06T02:28:13;12.60;99.90
53880;DHT22;39791;53.184;5.486;2024-03-06T02:30:39;12.40;99.90
53880;DHT22;39791;53.184;5.486;2024-03-06T02:33:05;12.40;99.90
53880;DHT22;39791;53.184;5.486;2024-03-06T02:35:32;12.40;99.90
53880;DHT22;39791;53.184;5.486;2024-03-06T02:37:59;12.40;99.90
53880;DHT22;39791;53.184;5.486;2024-03-06T02:40:25;12.30;99.90
53880;DHT22;39791;53.184;5.486;2024-03-06T02:42:51;12.40;99.90
53880;DHT22;39791;53.184;5.486;2024-03-06T02:45:16;12.30;99.90
53880;DHT22;39791;53.184;5.486;2024-03-06T02:47:42;12.30;99.90
53880;DHT22;39791;53.184;5.486;2024-03-06T02:50:10;12.40;99.90
53880;DHT22;39791;53.184;5.486;2024-03-06T02:52:36;12.30;99.90
53880;DHT22;39791;53.184;5.486;2024-03-06T02:55:02;12.30;99.90
53880;DHT22;39791;53.184;5.486;2024-03-06T02:57:27;12.40;99.90
53880;DHT22;39791;53.184;5.486;2024-03-06T02:59:57;12.60;99.90
53880;DHT22;39791;53.184;5.486;2024-03-06T03:02:22;12.30;99.90
53880;DHT22;39791;53.184;5.486;2024-03-06T03:04:49;12.30;99.90
53880;DHT22;39791;53.184;5.486;2024-03-06T03:07:15;12.40;99.90
53880;DHT22;39791;53.184;5.486;2024-03-06T03:09:41;12.40;99.90
53880;DHT22;39791;53.184;5.486;2024-03-06T03:12:06;12.30;99.90
53880;DHT22;39791;53.184;5.486;2024-03-06T03:14:32;13.30;99.90
53880;DHT22;39791;53.184;5.486;2024-03-06T03:17:00;12.20;99.90
53880;DHT22;39791;53.184;5.486;2024-03-06T03:19:25;12.20;99.90
53880;DHT22;39791;53.184;5.486;2024-03-06T03:21:51;12.20;99.90
53880;DHT22;39791;53.184;5.486;2024-03-06T03:24:17;12.20;99.90
53880;DHT22;39791;53.184;5.486;2024-03-06T03:26:45;12.50;99.90
53880;DHT22;39791;53.184;5.486;2024-03-06T03:29:11;12.20;99.90
53880;DHT22;39791;53.184;5.486;2024-03-06T03:31:36;12.50;99.90
53880;DHT22;39791;53.184;5.486;2024-03-06T03:34:05;12.20;99.90
53880;DHT22;39791;53.184;5.486;2024-03-06T03:36:34;12.20;99.90
53880;DHT22;39791;53.184;5.486;2024-03-06T03:39:00;12.00;99.90
53880;DHT22;39791;53.184;5.486;2024-03-06T03:41:26;12.20;99.90
53880;DHT22;39791;53.184;5.486;2024-03-06T03:43:51;12.10;99.90
53880;DHT22;39791;53.184;5.486;2024-03-06T03:46:17;12.00;99.90
53880;DHT22;39791;53.184;5.486;2024-03-06T03:48:42;11.90;99.90
53880;DHT22;39791;53.184;5.486;2024-03-06T03:51:08;11.90;99.90
53880;DHT22;39791;53.184;5.486;2024-03-06T03:53:34;11.90;99.90
53880;DHT22;39791;53.184;5.486;2024-03-06T03:56:00;12.00;99.90
53880;DHT22;39791;53.184;5.486;2024-03-06T03:58:26;11.90;99.90
53880;DHT22;39791;53.184;5.486;2024-03-06T04:00:52;11.90;99.90
53880;DHT22;39791;53.184;5.486;2024-03-06T04:03:19;12.00;99.90
53880;DHT22;39791;53.184;5.486;2024-03-06T04:05:47;12.00;99.90
53880;DHT22;39791;53.184;5.486;2024-03-06T04:08:12;11.90;99.90
53880;DHT22;39791;53.184;5.486;2024-03-06T04:10:38;12.00;99.90
53880;DHT22;39791;53.184;5.486;2024-03-06T04:13:04;11.90;99.90
53880;DHT22;39791;53.184;5.486;2024-03-06T04:15:29;12.10;99.90
53880;DHT22;39791;53.184;5.486;2024-03-06T04:17:56;12.20;99.90
53880;DHT22;39791;53.184;5.486;2024-03-06T04:20:22;12.20;99.90
53880;DHT22;39791;53.184;5.486;2024-03-06T04:22:48;12.10;99.90
53880;DHT22;39791;53.184;5.486;2024-03-06T04:25:16;12.20;99.90
53880;DHT22;39791;53.184;5.486;2024-03-06T04:27:42;12.20;99.90
53880;DHT22;39791;53.184;5.486;2024-03-06T04:30:08;12.70;99.90
53880;DHT22;39791;53.184;5.486;2024-03-06T04:32:34;12.20;99.90
53880;DHT22;39791;53.184;5.486;2024-03-06T04:35:00;12.10;99.90
53880;DHT22;39791;53.184;5.486;2024-03-06T04:37:25;12.20;99.90
53880;DHT22;39791;53.184;5.486;2024-03-06T04:39:52;12.70;99.90
53880;DHT22;39791;53.184;5.486;2024-03-06T04:42:18;12.30;99.90
53880;DHT22;39791;53.184;5.486;2024-03-06T04:44:45;12.10;99.90
53880;DHT22;39791;53.184;5.486;2024-03-06T04:47:11;12.30;99.90
53880;DHT22;39791;53.184;5.486;2024-03-06T04:49:36;12.20;99.90
53880;DHT22;39791;53.184;5.486;2024-03-06T04:52:02;12.10;99.90
53880;DHT22;39791;53.184;5.486;2024-03-06T04:54:28;12.00;99.90
53880;DHT22;39791;53.184;5.486;2024-03-06T04:56:55;12.20;99.90
53880;DHT22;39791;53.184;5.486;2024-03-06T04:59:20;12.20;99.90
53880;DHT22;39791;53.184;5.486;2024-03-06T05:01:46;12.20;99.90
53880;DHT22;39791;53.184;5.486;2024-03-06T05:04:11;12.10;99.90
53880;DHT22;39791;53.184;5.486;2024-03-06T05:06:37;12.20;99.90
53880;DHT22;39791;53.184;5.486;2024-03-06T05:09:03;12.10;99.90
53880;DHT22;39791;53.184;5.486;2024-03-06T05:11:29;12.10;99.90
53880;DHT22;39791;53.184;5.486;2024-03-06T05:13:58;12.10;99.90
53880;DHT22;39791;53.184;5.486;2024-03-06T05:16:24;12.20;99.90
53880;DHT22;39791;53.184;5.486;2024-03-06T05:18:49;12.10;99.90
53880;DHT22;39791;53.184;5.486;2024-03-06T05:21:15;12.10;99.90
53880;DHT22;39791;53.184;5.486;2024-03-06T05:23:41;12.10;99.90
53880;DHT22;39791;53.184;5.486;2024-03-06T05:26:06;12.20;99.90
53880;DHT22;39791;53.184;5.486;2024-03-06T05:28:33;12.20;99.90
53880;DHT22;39791;53.184;5.486;2024-03-06T05:30:59;12.10;99.90
53880;DHT22;39791;53.184;5.486;2024-03-06T05:33:26;12.30;99.90
53880;DHT22;39791;53.184;5.486;2024-03-06T05:35:54;12.20;99.90
53880;DHT22;39791;53.184;5.486;2024-03-06T05:38:19;12.20;99.90
53880;DHT22;39791;53.184;5.486;2024-03-06T05:40:47;12.20;99.90
53880;DHT22;39791;53.184;5.486;2024-03-06T05:43:12;12.20;99.90
53880;DHT22;39791;53.184;5.486;2024-03-06T05:45:38;12.90;99.90
53880;DHT22;39791;53.184;5.486;2024-03-06T05:48:04;12.20;99.90
53880;DHT22;39791;53.184;5.486;2024-03-06T05:50:30;12.20;99.90
53880;DHT22;39791;53.184;5.486;2024-03-06T05:52:57;12.30;99.90
53880;DHT22;39791;53.184;5.486;2024-03-06T05:55:23;12.10;99.90
53880;DHT22;39791;53.184;5.486;2024-03-06T05:57:48;12.30;99.90
53880;DHT22;39791;53.184;5.486;2024-03-06T06:00:15;10.50;99.90
53880;DHT22;39791;53.184;5.486;2024-03-06T06:02:43;12.30;99.90
53880;DHT22;39791;53.184;5.486;2024-03-06T06:05:10;12.80;99.90
53880;DHT22;39791;53.184;5.486;2024-03-06T06:07:36;12.10;99.90
53880;DHT22;39791;53.184;5.486;2024-03-06T06:10:04;12.30;99.90
53880;DHT22;39791;53.184;5.486;2024-03-06T06:12:33;12.30;99.90
53880;DHT22;39791;53.184;5.486;2024-03-06T06:14:59;12.30;99.90
53880;DHT22;39791;53.184;5.486;2024-03-06T06:17:24;12.40;99.90
53880;DHT22;39791;53.184;5.486;2024-03-06T06:19:50;12.60;99.90
53880;DHT22;39791;53.184;5.486;2024-03-06T06:22:16;12.40;99.90
53880;DHT22;39791;53.184;5.486;2024-03-06T06:24:42;12.40;99.90
53880;DHT22;39791;53.184;5.486;2024-03-06T06:27:07;12.40;99.90
53880;DHT22;39791;53.184;5.486;2024-03-06T06:29:33;12.30;99.90
53880;DHT22;39791;53.184;5.486;2024-03-06T06:31:59;12.30;99.90
53880;DHT22;39791;53.184;5.486;2024-03-06T06:34:24;12.30;99.90
53880;DHT22;39791;53.184;5.486;2024-03-06T06:36:53;12.30;99.90
53880;DHT22;39791;53.184;5.486;2024-03-06T06:39:19;12.30;99.90
53880;DHT22;39791;53.184;5.486;2024-03-06T06:41:44;12.40;99.90
53880;DHT22;39791;53.184;5.486;2024-03-06T06:44:10;12.20;99.90
53880;DHT22;39791;53.184;5.486;2024-03-06T06:46:36;12.70;99.90
53880;DHT22;39791;53.184;5.486;2024-03-06T06:49:01;12.20;99.90
53880;DHT22;39791;53.184;5.486;2024-03-06T06:51:27;12.90;99.90
53880;DHT22;39791;53.184;5.486;2024-03-06T06:53:53;12.30;99.90
53880;DHT22;39791;53.184;5.486;2024-03-06T06:56:20;12.30;99.90
53880;DHT22;39791;53.184;5.486;2024-03-06T06:58:49;12.30;99.90
53880;DHT22;39791;53.184;5.486;2024-03-06T07:01:15;12.40;99.90
53880;DHT22;39791;53.184;5.486;2024-03-06T07:03:42;12.60;99.90
53880;DHT22;39791;53.184;5.486;2024-03-06T07:06:08;12.40;99.90
53880;DHT22;39791;53.184;5.486;2024-03-06T07:08:34;12.90;99.90
53880;DHT22;39791;53.184;5.486;2024-03-06T07:10:59;12.30;99.90
53880;DHT22;39791;53.184;5.486;2024-03-06T07:13:25;12.70;99.90
53880;DHT22;39791;53.184;5.486;2024-03-06T07:15:51;12.30;99.90
53880;DHT22;39791;53.184;5.486;2024-03-06T07:18:17;12.30;99.90
53880;DHT22;39791;53.184;5.486;2024-03-06T07:20:42;12.40;99.90
53880;DHT22;39791;53.184;5.486;2024-03-06T07:23:08;13.10;99.90
53880;DHT22;39791;53.184;5.486;2024-03-06T07:25:33;12.30;99.90
53880;DHT22;39791;53.184;5.486;2024-03-06T07:27:59;12.40;99.90
53880;DHT22;39791;53.184;5.486;2024-03-06T07:30:25;12.70;99.90
53880;DHT22;39791;53.184;5.486;2024-03-06T07:32:50;12.50;99.90
53880;DHT22;39791;53.184;5.486;2024-03-06T07:35:16;12.30;99.90
53880;DHT22;39791;53.184;5.486;2024-03-06T07:37:43;12.40;99.90
53880;DHT22;39791;53.184;5.486;2024-03-06T07:40:10;12.40;99.90
53880;DHT22;39791;53.184;5.486;2024-03-06T07:42:36;12.20;99.90
53880;DHT22;39791;53.184;5.486;2024-03-06T07:45:03;12.40;99.90
53880;DHT22;39791;53.184;5.486;2024-03-06T07:47:29;12.40;99.90
53880;DHT22;39791;53.184;5.486;2024-03-06T07:49:55;12.40;99.90
53880;DHT22;39791;53.184;5.486;2024-03-06T07:52:20;12.40;99.90
53880;DHT22;39791;53.184;5.486;2024-03-06T07:54:46;13.00;99.90
53880;DHT22;39791;53.184;5.486;2024-03-06T07:57:12;12.60;99.90
53880;DHT22;39791;53.184;5.486;2024-03-06T07:59:38;12.50;99.90
53880;DHT22;39791;53.184;5.486;2024-03-06T08:02:03;12.50;99.90
53880;DHT22;39791;53.184;5.486;2024-03-06T08:04:30;12.40;99.90
53880;DHT22;39791;53.184;5.486;2024-03-06T08:06:55;12.40;99.90
53880;DHT22;39791;53.184;5.486;2024-03-06T08:09:21;12.40;99.90
53880;DHT22;39791;53.184;5.486;2024-03-06T08:11:49;12.50;99.90
53880;DHT22;39791;53.184;5.486;2024-03-06T08:14:14;12.40;99.90
53880;DHT22;39791;53.184;5.486;2024-03-06T08:16:42;13.00;99.90
53880;DHT22;39791;53.184;5.486;2024-03-06T08:19:08;12.40;99.90
53880;DHT22;39791;53.184;5.486;2024-03-06T08:21:35;12.40;99.90
53880;DHT22;39791;53.184;5.486;2024-03-06T08:24:00;12.30;99.90
53880;DHT22;39791;53.184;5.486;2024-03-06T08:26:26;12.40;99.90
53880;DHT22;39791;53.184;5.486;2024-03-06T08:28:52;12.40;99.90
53880;DHT22;39791;53.184;5.486;2024-03-06T08:31:18;12.50;99.90
53880;DHT22;39791;53.184;5.486;2024-03-06T08:33:44;12.40;99.90
53880;DHT22;39791;53.184;5.486;2024-03-06T08:36:10;12.50;99.90
53880;DHT22;39791;53.184;5.486;2024-03-06T08:38:35;12.30;99.90
53880;DHT22;39791;53.184;5.486;2024-03-06T08:41:01;12.40;99.90
53880;DHT22;39791;53.184;5.486;2024-03-06T08:43:26;12.40;99.90
53880;DHT22;39791;53.184;5.486;2024-03-06T08:45:52;12.50;99.90
53880;DHT22;39791;53.184;5.486;2024-03-06T08:48:17;12.50;99.90
53880;DHT22;39791;53.184;5.486;2024-03-06T08:50:43;12.40;99.90
53880;DHT22;39791;53.184;5.486;2024-03-06T08:53:09;12.40;99.90
53880;DHT22;39791;53.184;5.486;2024-03-06T08:55:35;12.30;99.90
53880;DHT22;39791;53.184;5.486;2024-03-06T08:58:00;12.60;99.90
53880;DHT22;39791;53.184;5.486;2024-03-06T09:00:26;12.70;99.90
53880;DHT22;39791;53.184;5.486;2024-03-06T09:02:52;12.60;99.90
53880;DHT22;39791;53.184;5.486;2024-03-06T09:05:18;12.50;99.90
53880;DHT22;39791;53.184;5.486;2024-03-06T09:07:44;12.60;99.90
53880;DHT22;39791;53.184;5.486;2024-03-06T09:10:10;12.60;99.90
53880;DHT22;39791;53.184;5.486;2024-03-06T09:12:36;12.50;99.90
53880;DHT22;39791;53.184;5.486;2024-03-06T09:15:03;12.60;99.90
53880;DHT22;39791;53.184;5.486;2024-03-06T09:17:29;12.40;99.90
53880;DHT22;39791;53.184;5.486;2024-03-06T09:19:55;12.50;99.90
53880;DHT22;39791;53.184;5.486;2024-03-06T09:22:21;12.90;99.90
53880;DHT22;39791;53.184;5.486;2024-03-06T09:24:47;12.50;99.90
53880;DHT22;39791;53.184;5.486;2024-03-06T09:27:14;12.60;99.90
53880;DHT22;39791;53.184;5.486;2024-03-06T09:29:40;12.60;99.90
53880;DHT22;39791;53.184;5.486;2024-03-06T09:32:06;12.60;99.90
53880;DHT22;39791;53.184;5.486;2024-03-06T09:34:32;12.50;99.90
53880;DHT22;39791;53.184;5.486;2024-03-06T09:36:57;12.70;99.90
53880;DHT22;39791;53.184;5.486;2024-03-06T09:39:23;12.80;99.90
53880;DHT22;39791;53.184;5.486;2024-03-06T09:41:53;12.80;99.90
53880;DHT22;39791;53.184;5.486;2024-03-06T09:44:19;12.70;99.90
53880;DHT22;39791;53.184;5.486;2024-03-06T09:46:47;12.70;99.90
53880;DHT22;39791;53.184;5.486;2024-03-06T09:49:18;12.80;99.90
53880;DHT22;39791;53.184;5.486;2024-03-06T09:51:45;12.80;99.90
53880;DHT22;39791;53.184;5.486;2024-03-06T09:54:13;12.60;99.90
53880;DHT22;39791;53.184;5.486;2024-03-06T09:56:45;12.60;99.90
53880;DHT22;39791;53.184;5.486;2024-03-06T09:59:11;12.70;99.90
53880;DHT22;39791;53.184;5.486;2024-03-06T10:01:47;12.70;99.90
53880;DHT22;39791;53.184;5.486;2024-03-06T10:04:27;12.50;99.90
53880;DHT22;39791;53.184;5.486;2024-03-06T10:06:57;12.70;99.90
53880;DHT22;39791;53.184;5.486;2024-03-06T10:09:24;12.60;99.90
53880;DHT22;39791;53.184;5.486;2024-03-06T10:11:50;12.60;99.90
53880;DHT22;39791;53.184;5.486;2024-03-06T10:14:19;12.50;99.90
53880;DHT22;39791;53.184;5.486;2024-03-06T10:16:53;12.80;99.90
53880;DHT22;39791;53.184;5.486;2024-03-06T10:19:19;12.60;99.90
53880;DHT22;39791;53.184;5.486;2024-03-06T10:21:47;12.70;99.90
53880;DHT22;39791;53.184;5.486;2024-03-06T10:24:20;12.80;99.90
53880;DHT22;39791;53.184;5.486;2024-03-06T10:26:48;13.30;99.90
53880;DHT22;39791;53.184;5.486;2024-03-06T10:29:18;12.60;99.90
53880;DHT22;39791;53.184;5.486;2024-03-06T10:31:59;12.60;99.90
53880;DHT22;39791;53.184;5.486;2024-03-06T10:34:26;12.70;99.90
53880;DHT22;39791;53.184;5.486;2024-03-06T10:37:02;12.80;99.90
53880;DHT22;39791;53.184;5.486;2024-03-06T10:39:33;12.60;99.90
53880;DHT22;39791;53.184;5.486;2024-03-06T10:42:02;12.90;99.90
53880;DHT22;39791;53.184;5.486;2024-03-06T10:44:28;12.90;99.90
53880;DHT22;39791;53.184;5.486;2024-03-06T10:47:00;12.70;99.90
53880;DHT22;39791;53.184;5.486;2024-03-06T10:49:27;12.70;99.90
53880;DHT22;39791;53.184;5.486;2024-03-06T10:52:00;13.00;99.90
53880;DHT22;39791;53.184;5.486;2024-03-06T10:54:30;13.00;99.90
53880;DHT22;39791;53.184;5.486;2024-03-06T10:56:56;13.00;99.90
53880;DHT22;39791;53.184;5.486;2024-03-06T10:59:25;12.80;99.90
53880;DHT22;39791;53.184;5.486;2024-03-06T11:01:54;13.10;99.90
53880;DHT22;39791;53.184;5.486;2024-03-06T11:04:23;13.50;99.90
53880;DHT22;39791;53.184;5.486;2024-03-06T11:06:50;13.10;99.90
53880;DHT22;39791;53.184;5.486;2024-03-06T11:09:16;13.10;99.90
53880;DHT22;39791;53.184;5.486;2024-03-06T11:11:49;12.90;99.90
53880;DHT22;39791;53.184;5.486;2024-03-06T11:14:15;13.00;99.90
53880;DHT22;39791;53.184;5.486;2024-03-06T11:17:01;13.00;99.90
53880;DHT22;39791;53.184;5.486;2024-03-06T11:19:28;13.00;99.90
53880;DHT22;39791;53.184;5.486;2024-03-06T11:21:54;13.00;99.90
53880;DHT22;39791;53.184;5.486;2024-03-06T11:24:38;13.20;99.90
53880;DHT22;39791;53.184;5.486;2024-03-06T11:27:04;13.70;99.90
53880;DHT22;39791;53.184;5.486;2024-03-06T11:30:07;13.10;99.90
53880;DHT22;39791;53.184;5.486;2024-03-06T11:33:00;13.40;99.90
53880;DHT22;39791;53.184;5.486;2024-03-06T11:35:29;13.20;99.90
53880;DHT22;39791;53.184;5.486;2024-03-06T11:37:55;13.20;99.90
53880;DHT22;39791;53.184;5.486;2024-03-06T11:40:24;13.30;99.90
53880;DHT22;39791;53.184;5.486;2024-03-06T11:42:50;13.60;99.90
53880;DHT22;39791;53.184;5.486;2024-03-06T11:45:16;13.60;99.90
53880;DHT22;39791;53.184;5.486;2024-03-06T11:48:02;14.30;99.90
53880;DHT22;39791;53.184;5.486;2024-03-06T11:50:28;13.50;99.90
53880;DHT22;39791;53.184;5.486;2024-03-06T11:52:58;13.70;99.90
53880;DHT22;39791;53.184;5.486;2024-03-06T11:55:24;13.70;99.90
53880;DHT22;39791;53.184;5.486;2024-03-06T11:57:52;14.10;99.90
53880;DHT22;39791;53.184;5.486;2024-03-06T12:00:22;13.60;99.90
53880;DHT22;39791;53.184;5.486;2024-03-06T12:02:49;13.40;99.90
53880;DHT22;39791;53.184;5.486;2024-03-06T12:05:15;13.50;99.90
53880;DHT22;39791;53.184;5.486;2024-03-06T12:07:48;13.60;99.90
53880;DHT22;39791;53.184;5.486;2024-03-06T12:10:14;13.60;99.90
53880;DHT22;39791;53.184;5.486;2024-03-06T12:12:41;13.80;99.90
53880;DHT22;39791;53.184;5.486;2024-03-06T12:15:09;13.90;99.90
53880;DHT22;39791;53.184;5.486;2024-03-06T12:17:49;13.70;99.90
53880;DHT22;39791;53.184;5.486;2024-03-06T12:20:16;13.70;99.90
53880;DHT22;39791;53.184;5.486;2024-03-06T12:22:49;13.80;99.90
53880;DHT22;39791;53.184;5.486;2024-03-06T12:25:22;13.80;99.90
53880;DHT22;39791;53.184;5.486;2024-03-06T12:27:49;14.10;99.90
53880;DHT22;39791;53.184;5.486;2024-03-06T12:30:22;14.00;99.90
53880;DHT22;39791;53.184;5.486;2024-03-06T12:32:59;14.20;99.90
53880;DHT22;39791;53.184;5.486;2024-03-06T12:35:25;14.00;99.90
53880;DHT22;39791;53.184;5.486;2024-03-06T12:37:54;14.20;99.90
53880;DHT22;39791;53.184;5.486;2024-03-06T12:40:20;14.20;99.90
53880;DHT22;39791;53.184;5.486;2024-03-06T12:42:45;14.10;99.90
53880;DHT22;39791;53.184;5.486;2024-03-06T12:45:12;14.20;99.90
53880;DHT22;39791;53.184;5.486;2024-03-06T12:47:42;14.10;99.90
53880;DHT22;39791;53.184;5.486;2024-03-06T12:50:08;14.30;99.90
53880;DHT22;39791;53.184;5.486;2024-03-06T12:52:36;14.30;99.90
53880;DHT22;39791;53.184;5.486;2024-03-06T12:55:02;14.30;99.90
53880;DHT22;39791;53.184;5.486;2024-03-06T12:57:32;14.30;99.90
53880;DHT22;39791;53.184;5.486;2024-03-06T12:59:57;14.50;99.90
53880;DHT22;39791;53.184;5.486;2024-03-06T13:02:23;14.30;99.90
53880;DHT22;39791;53.184;5.486;2024-03-06T13:04:49;15.20;99.90
53880;DHT22;39791;53.184;5.486;2024-03-06T13:07:15;14.50;99.90
53880;DHT22;39791;53.184;5.486;2024-03-06T13:09:40;14.50;99.90
53880;DHT22;39791;53.184;5.486;2024-03-06T13:12:06;14.50;99.90
53880;DHT22;39791;53.184;5.486;2024-03-06T13:14:32;14.50;99.90
53880;DHT22;39791;53.184;5.486;2024-03-06T13:16:59;14.50;99.90
53880;DHT22;39791;53.184;5.486;2024-03-06T13:19:25;14.60;99.90
53880;DHT22;39791;53.184;5.486;2024-03-06T13:21:50;15.70;99.90
53880;DHT22;39791;53.184;5.486;2024-03-06T13:24:18;14.50;99.90
53880;DHT22;39791;53.184;5.486;2024-03-06T13:26:47;14.60;99.90
53880;DHT22;39791;53.184;5.486;2024-03-06T13:29:14;14.60;99.90
53880;DHT22;39791;53.184;5.486;2024-03-06T13:31:39;14.70;99.90
53880;DHT22;39791;53.184;5.486;2024-03-06T13:34:05;14.70;99.90
53880;DHT22;39791;53.184;5.486;2024-03-06T13:36:31;14.70;99.90
53880;DHT22;39791;53.184;5.486;2024-03-06T13:38:57;14.80;99.90
53880;DHT22;39791;53.184;5.486;2024-03-06T13:41:23;14.70;99.90
53880;DHT22;39791;53.184;5.486;2024-03-06T13:43:48;14.70;99.90
53880;DHT22;39791;53.184;5.486;2024-03-06T13:46:14;14.70;99.90
53880;DHT22;39791;53.184;5.486;2024-03-06T13:48:40;14.80;99.90
53880;DHT22;39791;53.184;5.486;2024-03-06T13:51:05;14.80;99.90
53880;DHT22;39791;53.184;5.486;2024-03-06T13:53:31;14.80;99.90
53880;DHT22;39791;53.184;5.486;2024-03-06T13:55:57;14.90;99.90
53880;DHT22;39791;53.184;5.486;2024-03-06T13:58:23;14.70;99.90
53880;DHT22;39791;53.184;5.486;2024-03-06T14:00:48;14.80;99.90
53880;DHT22;39791;53.184;5.486;2024-03-06T14:03:14;14.80;99.90
53880;DHT22;39791;53.184;5.486;2024-03-06T14:05:39;14.80;99.90
53880;DHT22;39791;53.184;5.486;2024-03-06T14:08:05;14.80;99.90
53880;DHT22;39791;53.184;5.486;2024-03-06T14:10:31;14.90;99.90
53880;DHT22;39791;53.184;5.486;2024-03-06T14:13:02;14.90;99.90
53880;DHT22;39791;53.184;5.486;2024-03-06T14:15:28;14.90;99.90
53880;DHT22;39791;53.184;5.486;2024-03-06T14:17:54;15.20;99.90
53880;DHT22;39791;53.184;5.486;2024-03-06T14:20:20;14.90;99.90
53880;DHT22;39791;53.184;5.486;2024-03-06T14:22:46;15.50;99.90
53880;DHT22;39791;53.184;5.486;2024-03-06T14:25:12;15.10;99.90
53880;DHT22;39791;53.184;5.486;2024-03-06T14:27:38;15.00;99.90
53880;DHT22;39791;53.184;5.486;2024-03-06T14:30:05;15.60;99.90
53880;DHT22;39791;53.184;5.486;2024-03-06T14:32:35;15.20;99.90
53880;DHT22;39791;53.184;5.486;2024-03-06T14:35:01;15.30;99.90
53880;DHT22;39791;53.184;5.486;2024-03-06T14:37:27;15.40;99.90
53880;DHT22;39791;53.184;5.486;2024-03-06T14:39:53;15.60;99.90
53880;DHT22;39791;53.184;5.486;2024-03-06T14:42:19;16.20;99.90
53880;DHT22;39791;53.184;5.486;2024-03-06T14:44:45;16.60;99.90
53880;DHT22;39791;53.184;5.486;2024-03-06T14:47:12;15.60;99.90
53880;DHT22;39791;53.184;5.486;2024-03-06T14:49:37;16.00;99.90
53880;DHT22;39791;53.184;5.486;2024-03-06T14:52:03;15.60;99.90
53880;DHT22;39791;53.184;5.486;2024-03-06T14:54:29;15.70;99.90
53880;DHT22;39791;53.184;5.486;2024-03-06T14:56:54;15.70;99.90
53880;DHT22;39791;53.184;5.486;2024-03-06T14:59:23;15.70;99.90
53880;DHT22;39791;53.184;5.486;2024-03-06T15:01:49;15.70;99.90
53880;DHT22;39791;53.184;5.486;2024-03-06T15:04:15;15.70;99.90
53880;DHT22;39791;53.184;5.486;2024-03-06T15:06:41;15.70;99.90
53880;DHT22;39791;53.184;5.486;2024-03-06T15:09:07;15.60;99.90
53880;DHT22;39791;53.184;5.486;2024-03-06T15:11:39;15.60;99.90
53880;DHT22;39791;53.184;5.486;2024-03-06T15:14:05;15.50;99.90
53880;DHT22;39791;53.184;5.486;2024-03-06T15:16:33;15.40;99.90
53880;DHT22;39791;53.184;5.486;2024-03-06T15:18:59;15.50;99.90
53880;DHT22;39791;53.184;5.486;2024-03-06T15:21:25;15.40;99.90
53880;DHT22;39791;53.184;5.486;2024-03-06T15:23:51;15.40;99.90
53880;DHT22;39791;53.184;5.486;2024-03-06T15:26:18;15.40;99.90
53880;DHT22;39791;53.184;5.486;2024-03-06T15:28:43;15.50;99.90